Date,TemperatureHighF,TemperatureAvgF,TemperatureLowF,DewpointHighF,DewpointAvgF,DewpointLowF,HumidityHigh,HumidityAvg,HumidityLow,PressureMaxIn,PressureMinIn,WindSpeedMaxMPH,WindSpeedAvgMPH,GustSpeedMaxMPH,PrecipitationSumIn
2013-2-1,39,36,27,32,30,26,95,77,68,29.81,29.50,10,4,18,0.01
2013-2-2,39,37,36,31,30,30,79,76,72,29.51,29.16,12,5,24,0.00
2013-2-3,41,36,31,31,28,26,82,76,65,29.35,29.09,14,3,24,0.00
2013-2-4,37,34,32,30,28,25,90,77,64,29.54,29.35,9,3,24,0.00
2013-2-5,40,32,28,29,25,22,85,75,61,29.54,29.40,9,3,13,0.00
2013-2-6,28,23,20,26,21,17,95,90,81,29.54,29.38,10,3,19,0.00
2013-2-7,35,28,21,29,24,18,94,83,68,29.49,29.14,12,4,21,0.00
2013-2-8,34,31,27,29,28,26,96,88,77,29.62,29.31,9,2,18,0.00
2013-2-9,39,35,31,32,30,27,93,83,73,29.52,28.81,18,7,28,0.13
2013-2-10,37,30,24,32,28,19,95,90,76,29.46,28.81,20,6,33,0.03
2013-2-11,28,22,16,21,11,-9,86,67,22,29.64,29.46,18,5,22,0.00
2013-2-12,33,29,25,26,24,21,94,81,73,29.64,29.55,7,4,16,0.00
2013-2-13,35,29,23,28,25,22,95,86,70,29.70,29.44,19,4,26,0.00
2013-2-14,37,31,26,30,26,23,96,84,68,29.45,29.04,19,5,26,0.00
2013-2-15,27,21,15,26,18,10,95,87,76,29.91,29.43,13,6,22,0.00
2013-2-16,29,21,15,23,12,4,84,71,45,29.95,29.54,10,3,18,0.00
2013-2-17,30,24,18,23,19,14,90,83,71,29.67,29.43,9,4,13,0.00
2013-2-18,20,16,10,15,2,-4,79,55,41,29.79,29.66,13,6,19,0.00
2013-2-19,30,22,10,24,14,2,84,72,52,29.72,29.04,11,4,20,0.00
2013-2-20,34,27,23,27,22,20,95,83,71,29.16,28.88,14,4,20,0.00
2013-2-21,26,23,19,23,22,17,95,93,89,29.16,29.03,5,1,18,0.00
2013-2-22,20,18,15,17,14,11,93,84,72,29.32,29.16,12,6,18,0.00
2013-2-23,30,30,30,24,24,24,80,80,80,29.02,29.02,5,5,5,0.00
2013-2-24,32,30,27,29,25,22,93,84,72,29.51,29.21,5,3,11,0.00
2013-2-25,34,32,29,27,25,21,84,75,67,29.52,29.33,15,4,21,0.00
2013-2-26,38,33,30,27,25,23,83,71,62,29.34,29.10,12,5,22,0.02
2013-2-27,37,31,27,28,26,20,93,81,68,29.16,29.00,16,5,22,0.00
2013-2-28,33,29,26,28,26,24,96,88,78,29.33,29.16,12,3,19,0.00